Time;durP1;ratioP1;P1;durP2;ratioP2;P2;SDS_P1;SDS_P2;PMS_P1;PMS_P2;Temp;Humidity;BMP_temperature;BMP_pressure;BME280_temperature;BME280_humidity;BME280_pressure;Samples;Min_cycle;Max_cycle;Signal;HPM_P1;HPM_P2
2022/06/26 00:00:53;;;;;;;4.13;3.80;;;;;23.70;101032.00;;;;5043918;28;20207;-77
2022/06/26 00:03:20;;;;;;;4.60;4.20;;;;;23.70;101023.00;;;;5047582;28;20204;-77
2022/06/26 00:05:47;;;;;;;3.72;3.42;;;;;23.70;101037.00;;;;5044929;28;20207;-77
2022/06/26 00:08:15;;;;;;;4.13;3.78;;;;;23.70;101039.00;;;;5044739;28;20225;-77
2022/06/26 00:10:45;;;;;;;4.50;4.10;;;;;23.70;101039.00;;;;5045050;28;20198;-77
2022/06/26 00:13:13;;;;;;;4.50;3.80;;;;;23.70;101048.00;;;;5039130;28;20202;-77
2022/06/26 00:15:41;;;;;;;4.45;3.85;;;;;23.70;101054.00;;;;5057382;28;20210;-77
2022/06/26 00:18:09;;;;;;;4.03;3.63;;;;;23.70;101056.00;;;;5047292;28;20694;-77
2022/06/26 00:20:36;;;;;;;3.53;3.22;;;;;23.70;101056.00;;;;5039508;28;20192;-77
2022/06/26 00:23:04;;;;;;;4.55;4.10;;;;;23.70;101042.00;;;;5044126;28;20200;-76
2022/06/26 00:25:32;;;;;;;3.45;3.10;;;;;23.70;101055.00;;;;5046347;28;20203;-77
2022/06/26 00:27:59;;;;;;;5.45;4.32;;;;;23.70;101045.00;;;;5044944;28;20230;-77
2022/06/26 00:30:28;;;;;;;4.20;3.80;;;;;23.70;101054.00;;;;5044486;28;20208;-77
2022/06/26 00:32:55;;;;;;;6.03;4.57;;;;;23.70;101051.00;;;;5042564;28;20677;-77
2022/06/26 00:35:23;;;;;;;4.38;3.65;;;;;23.70;101056.00;;;;5043463;28;20203;-77
2022/06/26 00:37:50;;;;;;;4.38;3.97;;;;;23.70;101060.00;;;;5042810;28;20234;-77
2022/06/26 00:40:18;;;;;;;4.75;4.30;;;;;23.70;101062.00;;;;5046847;28;20196;-77
2022/06/26 00:42:45;;;;;;;4.47;4.07;;;;;23.70;101063.00;;;;5042948;28;20250;-77
2022/06/26 00:45:13;;;;;;;4.97;4.47;;;;;23.70;101073.00;;;;5044826;28;20223;-77
2022/06/26 00:47:42;;;;;;;4.82;3.83;;;;;23.70;101076.00;;;;5042184;28;20211;-77
2022/06/26 00:50:10;;;;;;;4.95;4.10;;;;;23.70;101084.00;;;;5043905;28;20191;-77
2022/06/26 00:52:40;;;;;;;4.50;4.10;;;;;23.70;101085.00;;;;5043256;28;20924;-77
2022/06/26 00:55:10;;;;;;;4.25;3.85;;;;;23.70;101093.00;;;;5045417;28;20203;-77
2022/06/26 00:57:37;;;;;;;3.90;3.55;;;;;23.70;101088.00;;;;5042717;28;20238;-77
2022/06/26 01:00:06;;;;;;;4.72;4.32;;;;;23.70;101101.00;;;;5042548;28;20202;-77
2022/06/26 01:02:34;;;;;;;5.03;3.72;;;;;23.70;101090.00;;;;5035405;28;20202;-77
2022/06/26 01:05:02;;;;;;;5.57;4.70;;;;;23.60;101085.00;;;;5043414;28;20195;-77
2022/06/26 01:07:32;;;;;;;4.97;4.38;;;;;23.70;101087.00;;;;5045175;28;20196;-77
2022/06/26 01:10:01;;;;;;;4.15;3.78;;;;;23.70;101089.00;;;;5038705;28;20207;-77
2022/06/26 01:12:28;;;;;;;4.93;3.92;;;;;23.70;101100.00;;;;5044603;28;20210;-77
2022/06/26 01:14:56;;;;;;;4.55;4.15;;;;;23.60;101106.00;;;;5043192;28;20195;-77
2022/06/26 01:17:23;;;;;;;5.72;3.78;;;;;23.60;101099.00;;;;5044757;28;20231;-77
2022/06/26 01:19:51;;;;;;;4.80;4.32;;;;;23.60;101106.00;;;;5044416;28;20196;-77
2022/06/26 01:22:19;;;;;;;4.70;4.28;;;;;23.60;101115.00;;;;5052484;28;20201;-77
2022/06/26 01:24:48;;;;;;;5.75;4.38;;;;;23.60;101106.00;;;;5049485;28;20207;-77
2022/06/26 01:27:15;;;;;;;5.03;4.60;;;;;23.60;101118.00;;;;5058606;28;20713;-77
2022/06/26 01:29:43;;;;;;;4.82;4.40;;;;;23.60;101117.00;;;;5052814;28;20641;-77
2022/06/26 01:32:10;;;;;;;5.75;4.50;;;;;23.60;101113.00;;;;5048596;28;20206;-77
2022/06/26 01:34:37;;;;;;;4.03;3.63;;;;;23.60;101111.00;;;;5047344;28;20195;-77
2022/06/26 01:37:05;;;;;;;5.70;4.70;;;;;23.60;101108.00;;;;5034272;28;20231;-77
2022/06/26 01:39:32;;;;;;;7.80;4.20;;;;;23.60;101108.00;;;;5040357;28;20203;-77
2022/06/26 01:42:01;;;;;;;5.18;4.70;;;;;23.60;101113.00;;;;5046758;28;20200;-77
2022/06/26 01:44:28;;;;;;;5.28;4.47;;;;;23.60;101110.00;;;;5049100;28;20239;-77
2022/06/26 01:46:56;;;;;;;6.03;4.95;;;;;23.60;101118.00;;;;5047824;28;20208;-77
2022/06/26 01:49:25;;;;;;;5.78;5.25;;;;;23.60;101119.00;;;;5045581;28;20203;-77
2022/06/26 01:51:54;;;;;;;5.43;5.03;;;;;23.60;101120.00;;;;5047614;28;20201;-77
2022/06/26 01:54:21;;;;;;;5.57;4.95;;;;;23.60;101118.00;;;;5047405;28;20200;-78
2022/06/26 01:56:49;;;;;;;5.38;4.90;;;;;23.60;101118.00;;;;5038906;28;20215;-77
2022/06/26 01:59:17;;;;;;;6.10;5.50;;;;;23.60;101117.00;;;;5046158;28;20200;-77
2022/06/26 02:01:45;;;;;;;6.13;5.25;;;;;23.60;101106.00;;;;5043098;28;20200;-77
2022/06/26 02:04:16;;;;;;;5.55;5.05;;;;;23.60;101107.00;;;;5045455;28;20208;-77
2022/06/26 02:06:43;;;;;;;6.13;5.30;;;;;23.50;101118.00;;;;5049228;28;20238;-77
2022/06/26 02:13:36;;;;;;;9.52;5.90;;;;;23.50;101122.00;;;;5044349;28;20285;-77
2022/06/26 02:14:44;;;;;;;6.53;5.43;;;;;23.50;101119.00;;;;5034998;28;20584;-78
2022/06/26 02:17:12;;;;;;;6.80;6.20;;;;;23.50;101130.00;;;;5048954;28;20223;-77
2022/06/26 02:19:39;;;;;;;8.23;6.55;;;;;23.50;101123.00;;;;5047068;28;20200;-77
2022/06/26 02:22:06;;;;;;;7.85;6.43;;;;;23.50;101115.00;;;;5047355;28;20200;-78
2022/06/26 02:24:34;;;;;;;7.20;6.50;;;;;23.50;101118.00;;;;5047420;28;20796;-77
2022/06/26 02:27:01;;;;;;;9.48;7.55;;;;;23.50;101103.00;;;;5046021;28;20211;-79
2022/06/26 02:29:28;;;;;;;7.82;6.72;;;;;23.40;101103.00;;;;5047501;28;20215;-76
2022/06/26 02:31:57;;;;;;;8.18;6.78;;;;;23.40;101092.00;;;;5043532;28;20196;-76
2022/06/26 02:34:24;;;;;;;8.10;7.07;;;;;23.40;101089.00;;;;5044570;28;20192;-76
2022/06/26 02:36:51;;;;;;;8.63;7.68;;;;;23.40;101094.00;;;;5036265;28;20228;-76
2022/06/26 02:39:19;;;;;;;9.55;7.22;;;;;23.30;101092.00;;;;5046782;28;20199;-77
2022/06/26 02:41:46;;;;;;;8.85;7.60;;;;;23.30;101083.00;;;;5050548;28;20199;-77
2022/06/26 02:44:15;;;;;;;8.38;7.47;;;;;23.30;101087.00;;;;5044046;28;20235;-76
2022/06/26 02:46:43;;;;;;;9.57;7.50;;;;;23.30;101075.00;;;;5046191;28;20218;-77
2022/06/26 02:49:12;;;;;;;8.15;7.30;;;;;23.20;101084.00;;;;5046592;28;20203;-76
2022/06/26 02:51:39;;;;;;;8.90;7.72;;;;;23.20;101083.00;;;;5049010;28;20204;-77
2022/06/26 02:54:07;;;;;;;9.50;7.53;;;;;23.20;101085.00;;;;5049080;28;20200;-77
2022/06/26 02:56:34;;;;;;;9.95;7.50;;;;;23.20;101090.00;;;;5035779;28;20196;-77
2022/06/26 02:59:01;;;;;;;8.82;7.82;;;;;23.20;101093.00;;;;5046435;28;20187;-77
2022/06/26 03:01:29;;;;;;;8.10;7.03;;;;;23.20;101082.00;;;;5050012;28;20192;-77
2022/06/26 03:03:56;;;;;;;8.82;7.45;;;;;23.20;101101.00;;;;5047844;28;20208;-78
2022/06/26 03:06:25;;;;;;;9.20;7.32;;;;;23.10;101108.00;;;;5044941;28;20669;-77
2022/06/26 03:08:52;;;;;;;10.02;7.40;;;;;23.10;101108.00;;;;5046842;28;20207;-77
2022/06/26 03:11:19;;;;;;;13.35;7.97;;;;;23.10;101111.00;;;;5046531;28;20192;-77
2022/06/26 03:13:47;;;;;;;11.93;8.45;;;;;23.10;101109.00;;;;5048886;28;20196;-77
2022/06/26 03:16:14;;;;;;;10.05;7.88;;;;;23.10;101108.00;;;;5039073;28;20202;-77
2022/06/26 03:18:41;;;;;;;9.13;7.53;;;;;23.10;101114.00;;;;5030330;28;20228;-77
2022/06/26 03:21:08;;;;;;;9.13;7.70;;;;;23.10;101120.00;;;;5043148;28;20194;-76
2022/06/26 03:26:22;;;;;;;10.48;6.97;;;;;23.10;101130.00;;;;5046532;28;20231;-77
2022/06/26 03:28:49;;;;;;;13.07;8.15;;;;;23.00;101125.00;;;;5046392;28;20198;-77
2022/06/26 03:31:17;;;;;;;10.02;7.95;;;;;23.00;101127.00;;;;5047584;28;20196;-77
2022/06/26 03:33:44;;;;;;;9.13;7.43;;;;;23.00;101129.00;;;;5041796;28;20192;-77
2022/06/26 03:36:11;;;;;;;10.55;7.45;;;;;23.00;101132.00;;;;5048073;28;20207;-77
2022/06/26 03:38:40;;;;;;;11.57;7.65;;;;;23.00;101141.00;;;;5042342;28;20235;-77
2022/06/26 03:41:08;;;;;;;9.95;7.43;;;;;22.90;101143.00;;;;5046665;28;20195;-77
2022/06/26 03:43:35;;;;;;;12.68;7.57;;;;;22.90;101154.00;;;;5040017;28;20227;-76
2022/06/26 03:46:03;;;;;;;9.20;7.50;;;;;22.90;101158.00;;;;5040852;28;20211;-77
2022/06/26 03:48:31;;;;;;;12.20;7.38;;;;;22.90;101153.00;;;;5042459;28;20698;-77
2022/06/26 03:50:59;;;;;;;10.68;7.40;;;;;22.80;101163.00;;;;5043957;28;20195;-77
2022/06/26 03:53:26;;;;;;;9.07;7.28;;;;;22.80;101169.00;;;;5052635;28;20585;-77
2022/06/26 03:55:55;;;;;;;12.05;8.07;;;;;22.80;101173.00;;;;5045558;28;20210;-77
2022/06/26 03:58:23;;;;;;;10.43;7.32;;;;;22.80;101171.00;;;;5045504;28;20795;-77
2022/06/26 04:00:51;;;;;;;11.05;7.28;;;;;22.80;101174.00;;;;5044667;28;20199;-77
2022/06/26 04:03:20;;;;;;;10.10;6.80;;;;;22.70;101178.00;;;;5047123;28;20187;-77
2022/06/26 04:05:48;;;;;;;8.85;7.05;;;;;22.70;101179.00;;;;5041847;28;22098;-77
2022/06/26 04:08:16;;;;;;;9.85;7.80;;;;;22.70;101187.00;;;;5045941;28;20211;-77
2022/06/26 04:10:44;;;;;;;11.65;7.25;;;;;22.60;101185.00;;;;5045787;28;20254;-77
2022/06/26 04:13:13;;;;;;;10.52;6.85;;;;;22.60;101192.00;;;;5044011;28;20211;-78
2022/06/26 04:15:41;;;;;;;10.02;6.85;;;;;22.60;101179.00;;;;5046111;28;20211;-77
2022/06/26 04:18:10;;;;;;;8.60;6.40;;;;;22.60;101180.00;;;;5044201;28;20226;-77
2022/06/26 04:20:37;;;;;;;7.75;6.07;;;;;22.60;101184.00;;;;5046597;28;20253;-77
2022/06/26 04:23:07;;;;;;;9.80;6.65;;;;;22.60;101187.00;;;;5049702;28;20207;-77
2022/06/26 04:25:35;;;;;;;8.43;6.00;;;;;22.60;101183.00;;;;5051111;28;20584;-77
2022/06/26 04:28:04;;;;;;;9.82;6.35;;;;;22.60;101181.00;;;;5045306;28;20211;-77
2022/06/26 04:30:33;;;;;;;7.03;5.72;;;;;22.50;101179.00;;;;5046389;28;20207;-78
2022/06/26 04:33:00;;;;;;;7.43;5.70;;;;;22.50;101177.00;;;;5049036;28;20206;-77
2022/06/26 04:35:27;;;;;;;7.55;5.65;;;;;22.50;101184.00;;;;5053746;28;20688;-77
2022/06/26 04:37:55;;;;;;;8.15;6.05;;;;;22.50;101180.00;;;;5043675;28;20227;-78
2022/06/26 04:40:22;;;;;;;8.35;6.00;;;;;22.50;101191.00;;;;5044548;28;20203;-77
2022/06/26 04:42:50;;;;;;;8.63;5.95;;;;;22.50;101194.00;;;;5043777;28;20211;-77
2022/06/26 04:45:17;;;;;;;8.15;5.57;;;;;22.50;101195.00;;;;5053050;28;20230;-78
2022/06/26 04:47:46;;;;;;;8.85;6.25;;;;;22.50;101205.00;;;;5047521;28;20580;-77
2022/06/26 04:50:14;;;;;;;8.48;5.97;;;;;22.50;101204.00;;;;5041923;28;20584;-77
2022/06/26 04:52:44;;;;;;;8.32;6.13;;;;;22.50;101205.00;;;;5040704;28;20204;-78
2022/06/26 04:55:12;;;;;;;8.20;5.72;;;;;22.50;101208.00;;;;5045724;28;20230;-77
2022/06/26 04:57:39;;;;;;;8.85;6.00;;;;;22.50;101212.00;;;;5041938;28;21163;-78
2022/06/26 05:00:09;;;;;;;11.55;6.63;;;;;22.50;101223.00;;;;5044963;28;20214;-78
2022/06/26 05:02:36;;;;;;;9.90;6.78;;;;;22.50;101226.00;;;;5049759;28;20203;-78
2022/06/26 05:05:06;;;;;;;12.45;6.47;;;;;22.50;101235.00;;;;5045015;28;20200;-78
2022/06/26 05:07:36;;;;;;;10.35;6.95;;;;;22.50;101241.00;;;;5043368;28;20199;-78
2022/06/26 05:10:05;;;;;;;7.20;6.28;;;;;22.50;101241.00;;;;5041544;28;20192;-78
2022/06/26 05:12:32;;;;;;;12.10;7.55;;;;;22.50;101241.00;;;;5040308;28;20219;-79
2022/06/26 05:14:59;;;;;;;10.52;6.38;;;;;22.50;101240.00;;;;5051691;28;20739;-78
2022/06/26 05:17:27;;;;;;;8.70;6.32;;;;;22.50;101235.00;;;;5043235;28;20200;-78
2022/06/26 05:19:54;;;;;;;8.43;7.13;;;;;22.50;101238.00;;;;5042008;28;20203;-78
2022/06/26 05:22:34;;;;;;;7.70;5.72;;;;;22.50;101238.00;;;;5043646;28;20215;-78
2022/06/26 05:25:05;;;;;;;9.43;6.43;;;;;22.60;101242.00;;;;5041317;28;20191;-79
2022/06/26 05:27:32;;;;;;;8.25;5.40;;;;;22.60;101247.00;;;;5027008;22;20760;-79
2022/06/26 05:29:59;;;;;;;12.13;5.60;;;;;22.60;101248.00;;;;5021260;28;20206;-79
2022/06/26 05:32:27;;;;;;;7.63;5.03;;;;;22.60;101251.00;;;;5017398;28;20683;-79
2022/06/26 05:34:54;;;;;;;6.15;4.80;;;;;22.60;101246.00;;;;5025045;28;20231;-79
2022/06/26 05:37:23;;;;;;;7.07;5.00;;;;;22.60;101249.00;;;;5017702;28;20671;-79
2022/06/26 05:39:50;;;;;;;7.40;5.50;;;;;22.70;101258.00;;;;5020249;28;20200;-81
2022/06/26 05:42:18;;;;;;;7.50;5.28;;;;;22.70;101254.00;;;;5023748;28;20270;-80
2022/06/26 05:44:45;;;;;;;5.13;4.43;;;;;22.70;101258.00;;;;5023695;28;20213;-80
2022/06/26 05:47:16;;;;;;;6.45;4.97;;;;;22.70;101249.00;;;;5023268;28;20326;-80
2022/06/26 05:49:43;;;;;;;8.20;4.38;;;;;22.70;101251.00;;;;5021455;28;20196;-80
2022/06/26 05:52:11;;;;;;;4.93;3.95;;;;;22.70;101254.00;;;;5024646;28;20644;-80
2022/06/26 05:54:54;;;;;;;6.85;4.60;;;;;22.80;101262.00;;;;5078564;28;20646;-80
2022/06/26 05:57:22;;;;;;;5.78;4.18;;;;;22.80;101260.00;;;;5073397;28;20191;-80
2022/06/26 05:59:49;;;;;;;6.00;4.28;;;;;22.90;101267.00;;;;5079452;28;20190;-79
2022/06/26 06:02:17;;;;;;;6.38;4.30;;;;;22.90;101269.00;;;;5078102;28;20215;-80
2022/06/26 06:04:44;;;;;;;5.25;4.20;;;;;23.00;101283.00;;;;5068321;28;20205;-80
2022/06/26 06:07:12;;;;;;;5.40;4.18;;;;;23.00;101285.00;;;;5079371;28;21008;-79
2022/06/26 06:09:46;;;;;;;5.85;4.45;;;;;23.10;101287.00;;;;5080416;28;20201;-83
2022/06/26 06:12:14;;;;;;;5.78;4.07;;;;;23.10;101292.00;;;;5075632;28;20677;-81
2022/06/26 06:14:42;;;;;;;4.80;4.15;;;;;23.10;101306.00;;;;5074757;28;20704;-80
2022/06/26 06:19:57;;;;;;;5.30;4.22;;;;;23.10;101308.00;;;;5077620;28;21027;-80
2022/06/26 06:22:25;;;;;;;4.43;3.75;;;;;23.10;101315.00;;;;5086160;28;20200;-81
2022/06/26 06:24:52;;;;;;;5.25;4.45;;;;;23.10;101319.00;;;;5080332;28;20194;-80
2022/06/26 06:27:27;;;;;;;5.60;4.53;;;;;23.10;101326.00;;;;5078259;28;20217;-80
2022/06/26 06:29:55;;;;;;;7.53;4.32;;;;;23.10;101324.00;;;;5070706;28;20210;-80
2022/06/26 06:32:28;;;;;;;4.72;4.05;;;;;23.10;101319.00;;;;5071654;28;20200;-80
2022/06/26 06:34:56;;;;;;;9.48;4.38;;;;;23.20;101326.00;;;;5070148;28;20234;-81
2022/06/26 06:37:23;;;;;;;6.75;4.30;;;;;23.20;101327.00;;;;5066114;28;20209;-81
2022/06/26 06:39:51;;;;;;;5.28;4.32;;;;;23.30;101327.00;;;;5072700;28;20202;-81
2022/06/26 06:42:19;;;;;;;3.75;3.35;;;;;23.30;101334.00;;;;5071600;28;20199;-81
2022/06/26 06:44:48;;;;;;;5.35;4.32;;;;;23.40;101325.00;;;;5067184;28;20201;-80
2022/06/26 06:47:16;;;;;;;5.28;3.80;;;;;23.50;101332.00;;;;5071855;28;20202;-81
2022/06/26 06:49:43;;;;;;;6.78;4.05;;;;;23.60;101334.00;;;;5071053;28;20221;-82
2022/06/26 06:52:13;;;;;;;4.95;4.03;;;;;23.60;101339.00;;;;5071004;28;20221;-81
2022/06/26 06:54:40;;;;;;;5.22;4.50;;;;;23.60;101350.00;;;;5068408;28;20234;-81
2022/06/26 06:57:07;;;;;;;5.25;4.63;;;;;23.60;101358.00;;;;5072315;28;20198;-81
2022/06/26 06:59:35;;;;;;;7.38;4.47;;;;;23.70;101364.00;;;;5073070;28;20213;-81
2022/06/26 07:02:04;;;;;;;5.55;4.20;;;;;23.70;101371.00;;;;5069347;28;20214;-81
2022/06/26 07:04:32;;;;;;;4.88;4.07;;;;;23.70;101364.00;;;;5054464;28;20207;-81
2022/06/26 07:07:00;;;;;;;6.75;3.90;;;;;23.70;101364.00;;;;5047584;28;20203;-81
2022/06/26 07:09:27;;;;;;;5.82;4.55;;;;;23.80;101367.00;;;;5051652;28;20199;-81
2022/06/26 07:11:55;;;;;;;5.78;5.07;;;;;23.80;101371.00;;;;5055216;28;20207;-82
2022/06/26 07:14:22;;;;;;;5.47;4.70;;;;;23.80;101369.00;;;;5053391;28;20220;-81
2022/06/26 07:16:49;;;;;;;5.18;4.68;;;;;23.80;101381.00;;;;5060404;28;20202;-82
2022/06/26 07:19:18;;;;;;;6.25;5.65;;;;;23.80;101392.00;;;;5050419;28;20196;-82
2022/06/26 07:21:45;;;;;;;5.68;5.05;;;;;23.80;101393.00;;;;5067584;28;20191;-80
2022/06/26 07:24:14;;;;;;;6.32;5.72;;;;;23.90;101401.00;;;;5056969;28;20571;-80
2022/06/26 07:26:42;;;;;;;5.82;5.22;;;;;23.90;101401.00;;;;5053646;28;20215;-79
2022/06/26 07:29:10;;;;;;;6.53;5.90;;;;;23.90;101401.00;;;;5050739;28;20203;-81
2022/06/26 07:31:37;;;;;;;7.68;6.40;;;;;24.00;101405.00;;;;5061299;28;20206;-79
2022/06/26 07:34:13;;;;;;;6.47;5.88;;;;;24.00;101405.00;;;;5059033;28;20856;-79
2022/06/26 07:36:43;;;;;;;6.50;5.93;;;;;24.00;101398.00;;;;5047921;28;20225;-79
2022/06/26 07:39:12;;;;;;;6.45;5.93;;;;;24.10;101401.00;;;;5047804;28;20204;-79
2022/06/26 07:41:40;;;;;;;6.50;5.90;;;;;24.10;101398.00;;;;5050869;28;20282;-79
2022/06/26 07:44:08;;;;;;;6.72;6.10;;;;;24.20;101397.00;;;;5045954;28;20200;-79
2022/06/26 07:46:36;;;;;;;7.63;6.38;;;;;24.30;101404.00;;;;5051843;28;21223;-79
2022/06/26 07:49:05;;;;;;;6.15;5.63;;;;;24.40;101401.00;;;;5046813;28;20199;-78
2022/06/26 07:51:32;;;;;;;5.78;5.20;;;;;24.50;101410.00;;;;5058588;28;20703;-79
2022/06/26 07:54:02;;;;;;;5.65;5.15;;;;;24.50;101412.00;;;;5060737;28;20701;-78
2022/06/26 07:56:29;;;;;;;5.78;5.28;;;;;24.60;101412.00;;;;5062363;28;20203;-78
2022/06/26 07:58:58;;;;;;;5.35;4.95;;;;;24.60;101416.00;;;;5050275;28;20200;-79
2022/06/26 08:01:25;;;;;;;5.82;4.65;;;;;24.70;101409.00;;;;5049445;28;20199;-78
2022/06/26 08:03:53;;;;;;;8.57;4.97;;;;;24.70;101412.00;;;;5049822;28;20208;-79
2022/06/26 08:06:21;;;;;;;5.72;5.03;;;;;24.70;101420.00;;;;5051215;28;20195;-79
2022/06/26 08:08:49;;;;;;;4.35;3.95;;;;;24.70;101420.00;;;;5050150;28;20200;-79
2022/06/26 08:11:19;;;;;;;6.22;5.05;;;;;24.70;101430.00;;;;5047553;28;20741;-79
2022/06/26 08:13:46;;;;;;;5.13;4.63;;;;;24.70;101422.00;;;;5045490;28;20285;-78
2022/06/26 08:16:14;;;;;;;5.55;5.00;;;;;24.80;101430.00;;;;5048718;28;20204;-78
2022/06/26 08:18:42;;;;;;;6.35;5.35;;;;;24.80;101427.00;;;;5049807;28;20219;-79
2022/06/26 08:23:54;;;;;;;5.43;4.93;;;;;24.80;101435.00;;;;5056146;28;20704;-78
2022/06/26 08:26:23;;;;;;;5.18;4.78;;;;;24.70;101437.00;;;;5058599;28;20199;-78
2022/06/26 08:28:50;;;;;;;4.90;4.40;;;;;24.70;101433.00;;;;5067254;28;20199;-78
2022/06/26 08:31:18;;;;;;;4.53;4.13;;;;;24.70;101425.00;;;;5059022;28;20199;-78
2022/06/26 08:33:45;;;;;;;5.00;3.65;;;;;24.70;101428.00;;;;5050817;28;20226;-79
2022/06/26 08:36:12;;;;;;;6.10;3.85;;;;;24.70;101419.00;;;;5046362;28;20405;-78
2022/06/26 08:38:40;;;;;;;4.45;3.40;;;;;24.80;101429.00;;;;5045424;28;20560;-78
2022/06/26 08:41:09;;;;;;;3.42;3.05;;;;;24.70;101429.00;;;;5060941;28;20202;-78
2022/06/26 08:43:39;;;;;;;3.30;2.97;;;;;24.70;101438.00;;;;5055546;28;20231;-79
2022/06/26 08:46:07;;;;;;;4.05;3.20;;;;;24.70;101443.00;;;;5056356;28;20213;-78
2022/06/26 08:48:42;;;;;;;2.30;2.10;;;;;24.70;101443.00;;;;5048968;28;20195;-77
2022/06/26 08:51:10;;;;;;;3.45;2.20;;;;;24.70;101441.00;;;;5050152;28;20202;-78
2022/06/26 08:53:38;;;;;;;4.30;2.05;;;;;24.70;101432.00;;;;5060343;28;20214;-78
2022/06/26 08:56:05;;;;;;;3.17;2.13;;;;;24.70;101431.00;;;;5052257;28;20209;-79
2022/06/26 08:58:33;;;;;;;2.75;2.20;;;;;24.70;101430.00;;;;5045259;28;20203;-78
2022/06/26 09:01:02;;;;;;;3.03;2.33;;;;;24.70;101432.00;;;;5046521;28;20218;-81
2022/06/26 09:03:29;;;;;;;4.00;1.83;;;;;24.70;101432.00;;;;5044023;28;20226;-79
2022/06/26 09:05:56;;;;;;;3.25;2.28;;;;;24.70;101436.00;;;;5044332;28;20206;-79
2022/06/26 09:08:25;;;;;;;4.45;2.42;;;;;24.80;101436.00;;;;5048036;28;20191;-79
2022/06/26 09:10:58;;;;;;;2.63;2.42;;;;;24.70;101438.00;;;;5046378;28;20291;-79
2022/06/26 09:13:37;;;;;;;3.47;2.40;;;;;24.70;101439.00;;;;5045690;28;20234;-80
2022/06/26 09:16:06;;;;;;;3.15;2.75;;;;;24.80;101439.00;;;;5054600;28;20253;-79
2022/06/26 09:18:38;;;;;;;3.28;2.40;;;;;24.80;101448.00;;;;5046187;28;20290;-79
2022/06/26 09:21:07;;;;;;;3.00;2.35;;;;;24.80;101465.00;;;;5046384;28;20957;-79
2022/06/26 09:23:36;;;;;;;3.80;3.20;;;;;24.80;101465.00;;;;5048824;28;20214;-81
2022/06/26 09:26:05;;;;;;;2.97;2.65;;;;;24.90;101446.00;;;;5047465;28;20579;-79
2022/06/26 09:28:33;;;;;;;4.70;3.17;;;;;24.90;101449.00;;;;5053432;28;20211;-80
2022/06/26 09:31:01;;;;;;;3.30;3.00;;;;;24.90;101447.00;;;;5050748;28;22095;-80
2022/06/26 09:33:32;;;;;;;3.45;3.15;;;;;24.90;101464.00;;;;5048367;28;20200;-80
2022/06/26 09:36:01;;;;;;;5.22;3.25;;;;;24.90;101469.00;;;;5055334;28;20570;-80
2022/06/26 09:38:29;;;;;;;3.15;2.50;;;;;24.90;101466.00;;;;5050176;28;20206;-81
2022/06/26 09:40:59;;;;;;;2.20;2.08;;;;;24.90;101467.00;;;;5053462;28;20191;-79
2022/06/26 09:43:29;;;;;;;2.92;2.50;;;;;24.90;101453.00;;;;5065072;28;20199;-80
2022/06/26 09:45:57;;;;;;;2.45;2.25;;;;;24.90;101459.00;;;;5044287;28;20198;-79
2022/06/26 09:48:25;;;;;;;3.85;2.97;;;;;25.00;101460.00;;;;5045659;28;20206;-79
2022/06/26 09:50:55;;;;;;;4.07;2.22;;;;;25.00;101466.00;;;;5055743;28;20206;-79
2022/06/26 09:53:23;;;;;;;3.00;2.75;;;;;25.00;101468.00;;;;5047504;28;20660;-78
2022/06/26 09:55:52;;;;;;;3.75;3.20;;;;;25.10;101456.00;;;;5051660;28;20216;-77
2022/06/26 09:58:21;;;;;;;5.20;3.15;;;;;25.10;101459.00;;;;5049333;28;20203;-78
2022/06/26 10:06:26;;;;;;;5.75;3.63;;;;;25.20;101457.00;;;;5052361;28;20238;-78
2022/06/26 10:08:55;;;;;;;3.70;3.40;;;;;25.20;101449.00;;;;5055648;28;20199;-77
2022/06/26 10:11:24;;;;;;;4.03;3.67;;;;;25.20;101459.00;;;;5051384;28;20881;-78
2022/06/26 10:13:57;;;;;;;4.22;3.83;;;;;25.20;101459.00;;;;5056434;28;20221;-79
2022/06/26 10:16:56;;;;;;;4.00;3.70;;;;;25.10;101456.00;;;;5050554;28;20188;-79
2022/06/26 10:19:29;;;;;;;3.90;3.13;;;;;25.20;101454.00;;;;5057212;28;20218;-78
2022/06/26 10:21:58;;;;;;;3.80;3.42;;;;;25.20;101463.00;;;;5051205;28;20195;-77
2022/06/26 10:24:25;;;;;;;4.40;4.05;;;;;25.30;101460.00;;;;5049201;28;20225;-78
2022/06/26 10:26:57;;;;;;;5.03;3.65;;;;;25.20;101458.00;;;;5055536;28;20222;-77
2022/06/26 10:29:38;;;;;;;3.97;3.58;;;;;25.20;101463.00;;;;5054626;28;20208;-78
2022/06/26 10:32:07;;;;;;;3.25;2.95;;;;;25.40;101469.00;;;;5051943;28;20196;-77
2022/06/26 10:34:35;;;;;;;2.92;2.72;;;;;25.40;101469.00;;;;5053555;28;20219;-77
2022/06/26 10:37:06;;;;;;;5.28;3.13;;;;;25.40;101474.00;;;;5053130;28;20200;-77
2022/06/26 10:39:49;;;;;;;4.00;3.60;;;;;25.40;101478.00;;;;5051297;28;20192;-78
2022/06/26 10:45:07;;;;;;;3.88;3.47;;;;;25.50;101485.00;;;;5059712;28;20198;-79
2022/06/26 10:47:43;;;;;;;4.40;4.00;;;;;25.50;101487.00;;;;5061403;28;20578;-79
2022/06/26 10:50:24;;;;;;;4.28;3.75;;;;;25.50;101490.00;;;;5047944;28;20199;-80
2022/06/26 10:52:53;;;;;;;5.22;3.00;;;;;25.60;101491.00;;;;5055145;28;20239;-79
2022/06/26 10:55:20;;;;;;;3.60;3.17;;;;;25.80;101492.00;;;;5054241;28;20225;-79
2022/06/26 10:57:49;;;;;;;5.97;3.17;;;;;25.80;101496.00;;;;5059815;28;20200;-79
2022/06/26 11:00:17;;;;;;;3.50;2.95;;;;;25.90;101497.00;;;;5059129;28;20215;-79
2022/06/26 11:02:46;;;;;;;3.60;3.10;;;;;26.00;101491.00;;;;5062783;28;20207;-79
2022/06/26 11:05:14;;;;;;;3.05;2.75;;;;;26.10;101481.00;;;;5056552;28;20282;-79
2022/06/26 11:07:46;;;;;;;4.30;3.05;;;;;26.10;101488.00;;;;5054957;28;20218;-79
2022/06/26 11:10:16;;;;;;;3.10;2.65;;;;;26.20;101491.00;;;;5046810;28;20210;-80
2022/06/26 11:12:45;;;;;;;2.90;2.70;;;;;26.30;101488.00;;;;5055499;28;20203;-79
2022/06/26 11:15:27;;;;;;;4.78;3.28;;;;;26.20;101491.00;;;;5049467;28;20215;-79
2022/06/26 11:17:55;;;;;;;2.92;2.45;;;;;26.40;101493.00;;;;5057350;28;20237;-79
2022/06/26 11:23:18;;;;;;;2.50;2.00;;;;;26.40;101494.00;;;;5066948;28;20696;-79
2022/06/26 11:25:48;;;;;;;3.75;2.72;;;;;26.40;101496.00;;;;5051591;28;20268;-80
2022/06/26 11:28:16;;;;;;;3.03;2.50;;;;;26.50;101510.00;;;;5050038;28;20207;-86
2022/06/26 11:30:46;;;;;;;4.03;2.00;;;;;26.50;101513.00;;;;5051911;28;20207;-83
2022/06/26 11:33:13;;;;;;;2.38;2.05;;;;;26.60;101503.00;;;;5057318;28;20291;-82
2022/06/26 11:35:42;;;;;;;2.53;1.95;;;;;26.60;101502.00;;;;5059838;28;20231;-82
2022/06/26 11:38:16;;;;;;;3.10;2.50;;;;;26.50;101502.00;;;;5054604;28;20454;-81
2022/06/26 11:40:46;;;;;;;3.65;2.10;;;;;26.60;101494.00;;;;5053044;28;20202;-79
2022/06/26 11:43:15;;;;;;;2.33;1.88;;;;;26.70;101497.00;;;;5054686;28;20196;-82
2022/06/26 11:45:43;;;;;;;3.28;2.17;;;;;26.70;101494.00;;;;5061777;28;20214;-77
2022/06/26 11:48:13;;;;;;;2.53;1.73;;;;;26.70;101491.00;;;;5053007;28;20211;-77
2022/06/26 11:50:40;;;;;;;2.10;1.83;;;;;26.80;101488.00;;;;5056352;28;20202;-77
2022/06/26 11:53:08;;;;;;;3.60;2.20;;;;;26.90;101485.00;;;;5045758;28;20219;-77
2022/06/26 11:55:45;;;;;;;2.97;2.17;;;;;26.90;101489.00;;;;5051629;28;20230;-77
2022/06/26 11:58:14;;;;;;;2.35;2.00;;;;;26.90;101494.00;;;;5047589;28;21094;-77
2022/06/26 12:00:42;;;;;;;3.13;2.40;;;;;27.00;101488.00;;;;5047718;28;20589;-77
2022/06/26 12:03:13;;;;;;;3.67;2.92;;;;;27.00;101492.00;;;;5052574;28;20210;-77
2022/06/26 12:05:42;;;;;;;3.10;2.40;;;;;27.00;101484.00;;;;5057959;28;20192;-77
2022/06/26 12:08:18;;;;;;;2.88;2.20;;;;;27.00;101480.00;;;;5066543;28;20276;-77
2022/06/26 12:10:49;;;;;;;2.38;1.80;;;;;27.00;101474.00;;;;5058551;28;20544;-76
2022/06/26 12:13:29;;;;;;;7.75;2.00;;;;;27.00;101475.00;;;;5055856;28;20244;-77
2022/06/26 12:16:02;;;;;;;2.35;1.80;;;;;27.00;101480.00;;;;5048778;28;20280;-77
2022/06/26 12:18:30;;;;;;;2.83;2.28;;;;;27.10;101484.00;;;;5059340;28;20199;-77
2022/06/26 12:20:57;;;;;;;3.85;2.20;;;;;27.10;101490.00;;;;5061597;28;20599;-77
2022/06/26 12:23:33;;;;;;;2.40;1.73;;;;;27.10;101493.00;;;;5063405;28;20206;-76
2022/06/26 12:26:08;;;;;;;3.33;1.90;;;;;27.10;101500.00;;;;5050992;28;21180;-77
2022/06/26 12:28:44;;;;;;;2.35;1.77;;;;;27.10;101498.00;;;;5047860;28;20583;-76
2022/06/26 12:31:12;;;;;;;1.88;1.55;;;;;27.20;101496.00;;;;5058437;28;20207;-77
2022/06/26 12:33:39;;;;;;;2.45;1.65;;;;;27.20;101489.00;;;;5065808;28;20206;-77
2022/06/26 12:36:07;;;;;;;1.85;1.10;;;;;27.20;101494.00;;;;5055371;28;20215;-77
2022/06/26 12:38:36;;;;;;;3.22;1.40;;;;;27.10;101496.00;;;;5056639;28;20229;-77